Weather History for Gunnison, CO

Change the Weather History Date:

Tuesday, May 12, 2009

  Actual Average Record
Temperature  
Mean Temperature 55 °F -  
Max Temperature 71 °F 61 °F 71 °F (2001)
Min Temperature 39 °F 29 °F 19 °F (1999)
Degree Days  
Heating Degree Days 10    
Growing Degree Days 5 (Base 50)    
Moisture  
Dew Point 24 °F    
Average Humidity 32    
Maximum Humidity 61    
Minimum Humidity 13    
Precipitation  
Precipitation 0.00 in - - ()
Sea Level Pressure  
Sea Level Pressure 30.00 in    
Wind  
Wind Speed 8 mph (WSW)    
Max Wind Speed 28 mph    
Max Gust Speed 41 mph    
Visibility 10 miles    
Events      
Averages and records for this station are not official NWS values.
T = Trace of Precipitation, MM = Missing Value Source: NWS Daily Summary

Daily Weather History Graph

Daily Weather History Graph

Search for Another Location

Airport:

Trip Planner

Search our weather history database for the weather conditions in past years. The results will help you decide how hot, cold, wet, or windy it might be!

Date:

Astronomy

May. 12, 2009 Rise Set
Actual Time 5:58 AM MDT 8:10 PM MDT
Civil Twilight 5:28 AM MDT 8:39 PM MDT
Nautical Twilight 4:52 AM MDT 9:16 PM MDT
Astronomical Twilight 4:13 AM MDT 9:55 PM MDT
Moon 11:48 PM MDT (5/12) 8:15 AM MDT (5/12)
Length of Visible Light 15h 10m
Length of Day
14h 11m
Waning Gibbous, 88% of the Moon is Illuminated
May 12
Waning Gibbous
May 17
Last Quarter
May 24
New
May 30
First Quarter
Jun 7
Full

Hourly Weather History & Observations

Time (MDT) Temp. Windchill Dew Point Humidity Pressure Visibility Wind Dir Wind Speed Gust Speed Precip Events Conditions
12:15 AM 44.6 °F - 26.6 °F 49% 30.06 in 10.0 mi Calm Calm - N/A   Scattered Clouds
12:35 AM 39.2 °F - 26.6 °F 61% 30.06 in 10.0 mi Calm Calm - N/A   Partly Cloudy
12:55 AM 42.8 °F 41.1 °F 26.6 °F 53% 30.05 in 10.0 mi North 3.5 mph - N/A   Mostly Cloudy
1:15 AM 46.4 °F 44.3 °F 26.6 °F 46% 30.06 in 10.0 mi North 4.6 mph - N/A   Overcast
1:35 AM 44.6 °F 43.1 °F 28.4 °F 53% 30.04 in 10.0 mi SSE 3.5 mph - N/A   Mostly Cloudy
1:55 AM 44.6 °F 40.7 °F 28.4 °F 53% 30.04 in 10.0 mi NNW 6.9 mph - N/A   Mostly Cloudy
2:15 AM 46.4 °F 42.9 °F 26.6 °F 46% 30.04 in 10.0 mi NW 6.9 mph - N/A   Mostly Cloudy
2:35 AM 44.6 °F 41.4 °F 26.6 °F 49% 30.03 in 10.0 mi East 5.8 mph - N/A   Mostly Cloudy
2:55 AM 44.6 °F 42.2 °F 28.4 °F 53% 30.05 in 10.0 mi ESE 4.6 mph - N/A   Mostly Cloudy
3:15 AM 44.6 °F 40.7 °F 28.4 °F 53% 30.06 in 10.0 mi SE 6.9 mph - N/A   Overcast
3:35 AM 44.6 °F - 28.4 °F 53% 30.04 in 10.0 mi Calm Calm - N/A   Scattered Clouds
3:55 AM 46.4 °F 42.9 °F 28.4 °F 50% 30.03 in 10.0 mi East 6.9 mph - N/A   Mostly Cloudy
4:15 AM 48.2 °F - 26.6 °F 43% 30.03 in 10.0 mi SSW 3.5 mph - N/A   Mostly Cloudy
4:35 AM 46.4 °F - 28.4 °F 50% 30.03 in 10.0 mi Calm Calm - N/A   Overcast
4:55 AM 48.2 °F - 26.6 °F 43% 30.03 in 10.0 mi Calm Calm - N/A   Mostly Cloudy
5:15 AM 48.2 °F - 26.6 °F 43% 30.04 in 10.0 mi NNE 4.6 mph - N/A   Mostly Cloudy
5:35 AM 46.4 °F 44.3 °F 26.6 °F 46% 30.04 in 10.0 mi NE 4.6 mph - N/A   Mostly Cloudy
5:55 AM 46.4 °F 44.3 °F 28.4 °F 50% 30.04 in 10.0 mi East 4.6 mph - N/A   Overcast
6:15 AM 44.6 °F 42.2 °F 28.4 °F 53% 30.05 in 10.0 mi East 4.6 mph - N/A   Mostly Cloudy
6:35 AM 44.6 °F - 28.4 °F 53% 30.05 in 10.0 mi Calm Calm - N/A   Scattered Clouds
6:55 AM 46.4 °F 45.2 °F 28.4 °F 50% 30.06 in 10.0 mi ENE 3.5 mph - N/A   Mostly Cloudy
7:35 AM 46.4 °F - 32.0 °F 57% 30.06 in 10.0 mi Calm Calm - N/A   Clear
7:55 AM 48.2 °F - 30.2 °F 50% 30.05 in 10.0 mi Calm Calm - N/A   Clear
8:15 AM 51.8 °F - 30.2 °F 44% 30.05 in 10.0 mi Calm Calm - N/A   Clear
8:35 AM 55.4 °F - 30.2 °F 38% 30.05 in 10.0 mi Calm Calm - N/A   Clear
8:55 AM 57.2 °F - 30.2 °F 36% 30.04 in 10.0 mi Calm Calm - N/A   Clear
9:15 AM 59.0 °F - 30.2 °F 34% 30.04 in 10.0 mi Calm Calm - N/A   Clear
9:35 AM 62.6 °F - 28.4 °F 27% 30.03 in 10.0 mi WSW 12.7 mph 16.1 mph N/A   Clear
9:55 AM 64.4 °F - 26.6 °F 24% 30.02 in 10.0 mi WSW 12.7 mph 18.4 mph N/A   Clear
10:15 AM 64.4 °F - 24.8 °F 22% 30.01 in 10.0 mi West 17.3 mph 24.2 mph N/A   Clear
10:35 AM 66.2 °F - 24.8 °F 21% 30.01 in 10.0 mi WSW 16.1 mph 24.2 mph N/A   Clear
10:55 AM 66.2 °F - 23.0 °F 19% 30.00 in 10.0 mi SW 16.1 mph 27.6 mph N/A   Clear
11:15 AM 68.0 °F - 23.0 °F 18% 30.00 in 10.0 mi WSW 12.7 mph 23.0 mph N/A   Scattered Clouds
11:35 AM 68.0 °F - 21.2 °F 17% 29.99 in 10.0 mi SSW 20.7 mph 31.1 mph N/A   Mostly Cloudy
11:55 AM 69.8 °F - 21.2 °F 16% 29.99 in 10.0 mi WSW 23.0 mph 34.5 mph N/A   Scattered Clouds
12:15 PM 69.8 °F - 19.4 °F 15% 29.98 in 10.0 mi West 18.4 mph 35.7 mph N/A   Scattered Clouds
12:35 PM 69.8 °F - 19.4 °F 15% 29.97 in 10.0 mi WSW 23.0 mph 32.2 mph N/A   Partly Cloudy
12:55 PM 69.8 °F - 21.2 °F 16% 29.96 in 10.0 mi WSW 27.6 mph 39.1 mph N/A   Clear
1:15 PM 69.8 °F - 19.4 °F 15% 29.95 in 10.0 mi West 18.4 mph 32.2 mph N/A   Clear
1:35 PM 69.8 °F - 19.4 °F 15% 29.95 in 10.0 mi WSW 21.9 mph 32.2 mph N/A   Clear
1:55 PM 71.6 °F - 19.4 °F 14% 29.94 in 10.0 mi WSW 26.5 mph 36.8 mph N/A   Clear
2:15 PM 69.8 °F - 17.6 °F 14% 29.94 in 10.0 mi WSW 17.3 mph 38.0 mph N/A   Clear
2:35 PM 71.6 °F - 19.4 °F 14% 29.94 in 10.0 mi West 20.7 mph 35.7 mph N/A   Clear
2:55 PM 71.6 °F - 19.4 °F 14% 29.93 in 10.0 mi West 20.7 mph 31.1 mph N/A   Clear
3:15 PM 71.6 °F - 19.4 °F 14% 29.92 in 10.0 mi WSW 26.5 mph 35.7 mph N/A   Clear
3:35 PM 71.6 °F - 17.6 °F 13% 29.92 in 10.0 mi West 23.0 mph 41.4 mph N/A   Clear
3:55 PM 71.6 °F - 17.6 °F 13% 29.91 in 10.0 mi West 24.2 mph 34.5 mph N/A   Clear
4:15 PM 71.6 °F - 17.6 °F 13% 29.90 in 10.0 mi West 20.7 mph 32.2 mph N/A   Clear
4:35 PM 71.6 °F - 19.4 °F 14% 29.90 in 10.0 mi WSW 24.2 mph 32.2 mph N/A   Partly Cloudy
4:55 PM 71.6 °F - 19.4 °F 14% 29.90 in 10.0 mi WSW 24.2 mph 34.5 mph N/A   Partly Cloudy
5:15 PM 71.6 °F - 19.4 °F 14% 29.89 in 10.0 mi WSW 19.6 mph 28.8 mph N/A   Clear
5:35 PM 71.6 °F - 19.4 °F 14% 29.89 in 10.0 mi WSW 27.6 mph 35.7 mph N/A   Partly Cloudy
5:55 PM 69.8 °F - 19.4 °F 15% 29.89 in 10.0 mi SW 19.6 mph 31.1 mph N/A   Clear
6:15 PM 69.8 °F - 19.4 °F 15% 29.88 in 10.0 mi WSW 21.9 mph 34.5 mph N/A   Scattered Clouds
6:35 PM 69.8 °F - 17.6 °F 14% 29.88 in 10.0 mi WSW 20.7 mph 31.1 mph N/A   Scattered Clouds
6:55 PM 68.0 °F - 17.6 °F 15% 29.88 in 10.0 mi WSW 18.4 mph 25.3 mph N/A   Partly Cloudy
7:15 PM 66.2 °F - 17.6 °F 15% 29.88 in 10.0 mi SW 16.1 mph 21.9 mph N/A   Clear
7:35 PM 66.2 °F - 17.6 °F 15% 29.88 in 10.0 mi SW 12.7 mph 23.0 mph N/A   Clear
7:55 PM 66.2 °F - 19.4 °F 17% 29.88 in 10.0 mi SW 10.4 mph 17.3 mph N/A   Clear
8:15 PM 66.2 °F - 19.4 °F 17% 29.88 in 10.0 mi SW 11.5 mph 18.4 mph N/A   Clear
8:35 PM 64.4 °F - 19.4 °F 18% 29.89 in 10.0 mi SW 6.9 mph - N/A   Clear
8:55 PM 64.4 °F - 19.4 °F 18% 29.90 in 10.0 mi SSW 11.5 mph - N/A   Clear
9:15 PM 64.4 °F - 19.4 °F 18% 29.90 in 10.0 mi SW 9.2 mph - N/A   Clear
9:35 PM 62.6 °F - 19.4 °F 19% 29.91 in 10.0 mi SW 5.8 mph - N/A   Clear
9:55 PM 62.6 °F - 19.4 °F 19% 29.92 in 10.0 mi SSW 3.5 mph - N/A   Clear
10:15 PM 62.6 °F - 19.4 °F 19% 29.91 in 10.0 mi SW 5.8 mph - N/A   Clear
10:35 PM 60.8 °F - 19.4 °F 20% 29.91 in 10.0 mi SW 4.6 mph - N/A   Clear
10:55 PM 60.8 °F - 19.4 °F 20% 29.91 in 10.0 mi Calm Calm - N/A   Clear
11:15 PM 60.8 °F - 19.4 °F 20% 29.91 in 10.0 mi WSW 4.6 mph - N/A   Clear
11:35 PM 57.2 °F - 21.2 °F 25% 29.91 in 10.0 mi SSW 5.8 mph - N/A   Clear
11:55 PM 62.6 °F - 17.6 °F 18% 29.91 in 10.0 mi WSW 10.4 mph 17.3 mph N/A   Partly Cloudy